Time;durP1;ratioP1;P1;durP2;ratioP2;P2;SDS_P1;SDS_P2;PMS_P1;PMS_P2;Temp;Humidity;BMP_temperature;BMP_pressure;BME280_temperature;BME280_humidity;BME280_pressure;Samples;Min_cycle;Max_cycle;Signal;HPM_P1;HPM_P2
2021/12/21 00:00:48;;;;;;;21.63;12.65;;;;;;;-0.27;100.00;102947.59;5110082;28;20054;-39
2021/12/21 00:03:17;;;;;;;14.10;7.63;;;;;;;-0.29;100.00;102951.56;5111425;28;20551;-33
2021/12/21 00:05:46;;;;;;;11.77;7.43;;;;;;;-0.31;100.00;102949.00;5110658;28;20036;-35
2021/12/21 00:08:17;;;;;;;13.48;8.13;;;;;;;-0.32;100.00;102947.28;5099340;28;20047;-31
2021/12/21 00:11:04;;;;;;;20.65;12.15;;;;;;;-0.34;100.00;102943.84;5110373;28;20043;-33
2021/12/21 00:13:56;;;;;;;15.18;9.40;;;;;;;-0.33;100.00;102950.19;5115316;28;20055;-27
2021/12/21 00:16:45;;;;;;;13.98;8.23;;;;;;;-0.38;100.00;102942.50;5114198;28;20416;-28
2021/12/21 00:19:36;;;;;;;14.57;9.73;;;;;;;-0.40;100.00;102948.16;5115110;28;20059;-30
2021/12/21 00:22:11;;;;;;;18.33;10.40;;;;;;;-0.41;100.00;102943.72;5113189;28;20404;-35
2021/12/21 00:24:46;;;;;;;15.05;8.93;;;;;;;-0.44;100.00;102941.31;5114830;28;20194;-35
2021/12/21 00:27:15;;;;;;;14.25;8.40;;;;;;;-0.45;100.00;102941.50;5114498;28;20079;-33
2021/12/21 00:29:43;;;;;;;14.55;9.48;;;;;;;-0.48;100.00;102934.47;5114069;28;20051;-36
2021/12/21 00:32:11;;;;;;;14.40;8.60;;;;;;;-0.49;100.00;102937.38;5114171;28;20044;-34
2021/12/21 00:34:39;;;;;;;16.02;8.82;;;;;;;-0.51;100.00;102932.06;5114468;28;20051;-31
2021/12/21 00:37:08;;;;;;;12.90;7.80;;;;;;;-0.52;100.00;102922.13;5113051;28;20047;-34
2021/12/21 00:39:37;;;;;;;11.05;6.57;;;;;;;-0.51;100.00;102939.44;5114700;28;20044;-33
2021/12/21 00:42:07;;;;;;;11.55;6.70;;;;;;;-0.52;100.00;102930.38;5114064;28;20048;-37
2021/12/21 00:44:35;;;;;;;8.48;4.32;;;;;;;-0.54;100.00;102924.19;5113576;28;20044;-38
2021/12/21 00:47:03;;;;;;;14.27;6.60;;;;;;;-0.54;100.00;102929.69;5113848;28;20051;-31
2021/12/21 00:49:31;;;;;;;8.13;4.20;;;;;;;-0.55;100.00;102910.66;5101985;28;20055;-30
2021/12/21 00:51:59;;;;;;;10.10;4.90;;;;;;;-0.54;100.00;102920.59;5114054;28;20454;-33
2021/12/21 00:54:27;;;;;;;11.65;5.72;;;;;;;-0.55;100.00;102919.75;5114028;28;20492;-32
2021/12/21 00:56:55;;;;;;;14.02;6.60;;;;;;;-0.55;100.00;102911.50;5107204;28;20508;-37
2021/12/21 00:59:24;;;;;;;10.38;4.57;;;;;;;-0.55;100.00;102905.19;5114070;28;20437;-40
2021/12/21 01:01:51;;;;;;;11.55;6.30;;;;;;;-0.57;100.00;102907.22;5113405;28;20119;-31
2021/12/21 01:04:24;;;;;;;9.48;4.45;;;;;;;-0.57;100.00;102915.47;5113093;28;20069;-34
2021/12/21 01:07:02;;;;;;;10.70;4.90;;;;;;;-0.57;100.00;102921.81;5114009;28;20469;-37
2021/12/21 01:09:58;;;;;;;14.35;6.53;;;;;;;-0.56;100.00;102923.50;5113719;28;20045;-36
2021/12/21 01:12:40;;;;;;;6.35;3.90;;;;;;;-0.53;100.00;102903.13;5112544;28;20050;-38
2021/12/21 01:15:20;;;;;;;8.85;4.40;;;;;;;-0.52;100.00;102905.69;5111839;28;20038;-34
2021/12/21 01:17:54;;;;;;;13.73;4.85;;;;;;;-0.48;100.00;102912.53;5112725;28;20048;-36
2021/12/21 01:20:30;;;;;;;15.65;6.05;;;;;;;-0.41;100.00;102905.31;5101116;28;20047;-31
2021/12/21 01:23:22;;;;;;;12.32;5.13;;;;;;;-0.37;100.00;102897.56;5113222;28;20111;-33
2021/12/21 01:25:57;;;;;;;10.00;3.72;;;;;;;-0.37;100.00;102901.16;5102644;28;20071;-35
2021/12/21 01:28:34;;;;;;;6.25;3.45;;;;;;;-0.37;100.00;102889.34;5113291;28;20050;-37
2021/12/21 01:31:17;;;;;;;9.15;4.18;;;;;;;-0.37;100.00;102901.16;5103279;28;20474;-31
2021/12/21 01:34:03;;;;;;;10.88;4.97;;;;;;;-0.37;100.00;102892.94;5112559;28;20050;-34
2021/12/21 01:36:37;;;;;;;8.05;3.45;;;;;;;-0.40;100.00;102887.81;5099324;28;20068;-34
2021/12/21 01:39:14;;;;;;;6.65;2.72;;;;;;;-0.40;100.00;102892.47;5108690;28;20492;-34
2021/12/21 01:41:50;;;;;;;5.35;2.90;;;;;;;-0.43;100.00;102887.34;5113376;28;20471;-36
2021/12/21 01:44:33;;;;;;;6.07;2.47;;;;;;;-0.45;100.00;102894.88;5112717;28;20051;-35
2021/12/21 01:49:50;;;;;;;9.00;4.00;;;;;;;-0.52;100.00;102889.22;5112733;28;20086;-33
2021/12/21 01:52:20;;;;;;;6.72;3.65;;;;;;;-0.56;100.00;102887.88;5113121;27;20058;-34
2021/12/21 01:54:49;;;;;;;6.18;3.30;;;;;;;-0.59;100.00;102893.69;5111752;28;20144;-31
2021/12/21 01:57:17;;;;;;;4.88;2.88;;;;;;;-0.62;100.00;102894.06;5113020;28;20065;-33
2021/12/21 01:59:47;;;;;;;12.40;6.35;;;;;;;-0.65;100.00;102894.44;5112048;28;20504;-27
2021/12/21 02:02:19;;;;;;;11.45;5.00;;;;;;;-0.68;100.00;102888.44;5112649;28;20138;-31
2021/12/21 02:04:47;;;;;;;9.45;5.35;;;;;;;-0.73;100.00;102894.44;5112548;28;20043;-39
2021/12/21 02:07:15;;;;;;;6.90;3.95;;;;;;;-0.77;100.00;102890.31;5112186;28;20045;-31
2021/12/21 02:09:43;;;;;;;8.77;5.50;;;;;;;-0.78;100.00;102888.59;5112312;28;20039;-30
2021/12/21 02:12:14;;;;;;;10.07;5.85;;;;;;;-0.80;100.00;102887.97;5112751;28;20467;-33
2021/12/21 02:14:47;;;;;;;8.18;4.85;;;;;;;-0.81;100.00;102884.38;5111486;28;20044;-32
2021/12/21 02:17:41;;;;;;;10.00;5.93;;;;;;;-0.83;100.00;102891.03;5112701;28;20043;-35
2021/12/21 02:20:19;;;;;;;9.63;5.47;;;;;;;-0.87;100.00;102890.53;5112147;28;20039;-33
2021/12/21 02:22:54;;;;;;;7.20;4.50;;;;;;;-0.88;100.00;102891.56;5102119;28;20078;-34
2021/12/21 02:25:41;;;;;;;11.82;6.40;;;;;;;-0.90;100.00;102892.75;5111956;28;20038;-32
2021/12/21 02:28:31;;;;;;;8.93;5.55;;;;;;;-0.93;100.00;102890.34;5111763;28;20052;-35
2021/12/21 02:30:59;;;;;;;12.20;5.85;;;;;;;-0.96;100.00;102890.69;5111970;28;20043;-34
2021/12/21 02:33:28;;;;;;;10.88;5.30;;;;;;;-0.95;100.00;102884.19;5111413;28;20055;-32
2021/12/21 02:35:58;;;;;;;8.35;4.55;;;;;;;-0.94;100.00;102885.91;5111181;28;20047;-34
2021/12/21 02:38:26;;;;;;;12.15;5.57;;;;;;;-0.92;100.00;102878.38;5112286;28;20130;-35
2021/12/21 02:40:55;;;;;;;12.13;5.03;;;;;;;-0.93;100.00;102877.50;5111725;28;20127;-36
2021/12/21 02:43:23;;;;;;;6.97;3.50;;;;;;;-0.92;100.00;102875.63;5111475;28;20127;-35
2021/12/21 02:45:51;;;;;;;11.63;5.47;;;;;;;-0.91;100.00;102877.34;5111600;28;20062;-31
2021/12/21 02:48:19;;;;;;;8.52;4.18;;;;;;;-0.91;100.00;102871.84;5112050;28;20047;-33
2021/12/21 02:50:47;;;;;;;11.00;4.65;;;;;;;-0.89;100.00;102878.03;5111059;28;20047;-32
2021/12/21 02:53:16;;;;;;;11.40;4.80;;;;;;;-0.87;100.00;102873.22;5111751;28;20051;-37
2021/12/21 02:55:44;;;;;;;10.10;4.40;;;;;;;-0.86;100.00;102867.56;5111995;28;20049;-28
2021/12/21 02:58:12;;;;;;;10.23;5.05;;;;;;;-0.82;100.00;102876.31;5109825;28;20083;-30
2021/12/21 03:00:40;;;;;;;13.05;5.07;;;;;;;-0.80;100.00;102861.38;5111665;28;20050;-29
2021/12/21 03:03:13;;;;;;;10.90;5.18;;;;;;;-0.76;100.00;102867.38;5110846;28;20086;-37
2021/12/21 03:05:46;;;;;;;8.55;4.70;;;;;;;-0.74;100.00;102863.41;5111746;28;20047;-40
2021/12/21 03:08:19;;;;;;;7.15;3.90;;;;;;;-0.75;100.00;102864.44;5111864;28;20419;-33
2021/12/21 03:11:01;;;;;;;5.00;2.92;;;;;;;-0.76;100.00;102862.75;5111078;28;20047;-37
2021/12/21 03:16:15;;;;;;;8.15;4.05;;;;;;;-0.84;100.00;102862.78;5111826;28;20047;-31
2021/12/21 03:18:43;;;;;;;7.05;2.65;;;;;;;-0.86;100.00;102858.50;5110713;28;20047;-37
2021/12/21 03:21:11;;;;;;;6.90;2.67;;;;;;;-0.89;100.00;102861.59;5111337;28;20077;-33
2021/12/21 03:23:41;;;;;;;5.25;2.88;;;;;;;-0.91;100.00;102866.38;5108281;28;20054;-34
2021/12/21 03:26:09;;;;;;;7.03;4.03;;;;;;;-0.94;100.00;102869.47;5110719;28;20039;-35
2021/12/21 03:28:36;;;;;;;8.73;4.88;;;;;;;-0.96;100.00;102863.31;5111523;28;20445;-32
2021/12/21 03:31:05;;;;;;;7.70;4.47;;;;;;;-0.98;100.00;102860.72;5111453;28;20063;-34
2021/12/21 03:33:33;;;;;;;6.10;3.33;;;;;;;-1.00;100.00;102861.97;5106902;28;20055;-34
2021/12/21 03:36:02;;;;;;;6.70;3.38;;;;;;;-1.04;100.00;102861.44;5111381;28;20157;-38
2021/12/21 03:38:31;;;;;;;5.22;3.17;;;;;;;-1.06;100.00;102864.34;5110608;28;20048;-29
2021/12/21 03:41:05;;;;;;;4.90;2.95;;;;;;;-1.09;100.00;102864.69;5111592;28;20043;-30
2021/12/21 03:43:33;;;;;;;5.38;3.50;;;;;;;-1.12;100.00;102865.03;5111019;28;20040;-30
2021/12/21 03:46:08;;;;;;;9.52;4.57;;;;;;;-1.15;100.00;102864.53;5114332;28;20079;-33
2021/12/21 03:48:36;;;;;;;10.65;5.93;;;;;;;-1.15;100.00;102859.03;5105140;28;20135;-33
2021/12/21 03:51:04;;;;;;;6.72;3.53;;;;;;;-1.16;100.00;102868.28;5115480;28;20050;-35
2021/12/21 03:53:32;;;;;;;4.85;3.03;;;;;;;-1.18;100.00;102865.72;5114212;28;20056;-32
2021/12/21 03:56:18;;;;;;;6.38;3.55;;;;;;;-1.19;100.00;102858.53;5115484;28;20097;-30
2021/12/21 03:58:47;;;;;;;5.28;3.25;;;;;;;-1.20;100.00;102859.56;5114912;28;20051;-35
2021/12/21 04:01:14;;;;;;;7.97;4.68;;;;;;;-1.21;100.00;102866.09;5114487;28;20056;-34
2021/12/21 04:03:42;;;;;;;8.35;4.72;;;;;;;-1.18;100.00;102860.25;5114902;28;20043;-39
2021/12/21 04:06:11;;;;;;;9.35;5.22;;;;;;;-1.15;100.00;102859.91;5114980;28;20050;-35
2021/12/21 04:08:38;;;;;;;14.32;5.18;;;;;;;-1.13;100.00;102855.13;5113875;28;20476;-31
2021/12/21 04:11:08;;;;;;;10.07;5.43;;;;;;;-1.08;100.00;102860.06;5114999;28;20397;-33
2021/12/21 04:13:36;;;;;;;12.52;5.65;;;;;;;-1.01;100.00;102854.78;5113672;28;20067;-34
2021/12/21 04:16:05;;;;;;;9.10;4.80;;;;;;;-0.96;100.00;102846.84;5115167;28;20427;-33
2021/12/21 04:18:37;;;;;;;9.85;5.07;;;;;;;-0.92;100.00;102842.75;5114906;28;20214;-35
2021/12/21 04:21:06;;;;;;;15.73;6.05;;;;;;;-0.89;100.00;102843.25;5114285;28;20048;-32
2021/12/21 04:23:34;;;;;;;12.93;6.05;;;;;;;-0.82;100.00;102840.69;5114813;28;20050;-36
2021/12/21 04:26:02;;;;;;;11.52;6.15;;;;;;;-0.78;100.00;102840.13;5114342;28;20134;-35
2021/12/21 04:28:31;;;;;;;12.52;5.85;;;;;;;-0.75;100.00;102831.56;5113708;28;20101;-32
2021/12/21 04:30:58;;;;;;;12.95;5.32;;;;;;;-0.72;100.00;102836.69;5114594;28;20492;-33
2021/12/21 04:33:26;;;;;;;13.80;6.10;;;;;;;-0.69;100.00;102843.72;5114596;28;20048;-37
2021/12/21 04:35:54;;;;;;;14.40;5.93;;;;;;;-0.64;100.00;102840.44;5113594;28;20047;-36
2021/12/21 04:38:26;;;;;;;12.75;6.05;;;;;;;-0.61;100.00;102842.84;5114316;28;20051;-32
2021/12/21 04:41:00;;;;;;;14.82;6.65;;;;;;;-0.58;100.00;102834.25;5114855;28;20691;-33
2021/12/21 04:43:28;;;;;;;15.52;6.43;;;;;;;-0.58;100.00;102832.34;5094635;28;20056;-37
2021/12/21 04:45:57;;;;;;;10.02;5.03;;;;;;;-0.57;100.00;102842.28;5109077;28;20048;-31
2021/12/21 04:48:25;;;;;;;14.27;7.00;;;;;;;-0.58;100.00;102840.56;5114253;28;20047;-34
2021/12/21 04:50:53;;;;;;;13.05;5.68;;;;;;;-0.57;100.00;102839.53;5112874;28;20032;-34
2021/12/21 04:53:20;;;;;;;14.75;6.97;;;;;;;-0.54;100.00;102838.34;5113995;28;20055;-33
2021/12/21 04:55:49;;;;;;;13.23;7.18;;;;;;;-0.52;100.00;102839.88;5112155;28;20051;-36
2021/12/21 04:58:16;;;;;;;11.15;6.10;;;;;;;-0.50;100.00;102834.22;5114315;28;20050;-35
2021/12/21 05:00:44;;;;;;;9.35;5.05;;;;;;;-0.50;100.00;102837.81;5113458;28;20066;-38
2021/12/21 05:03:13;;;;;;;7.22;4.22;;;;;;;-0.52;100.00;102837.13;5111042;28;20391;-33
2021/12/21 05:05:42;;;;;;;14.18;5.25;;;;;;;-0.54;100.00;102832.84;5104005;28;20470;-32
2021/12/21 05:08:12;;;;;;;6.57;3.70;;;;;;;-0.56;100.00;102826.69;5112401;28;20336;-30
2021/12/21 05:10:47;;;;;;;7.35;4.03;;;;;;;-0.59;100.00;102822.41;5111036;28;20047;-30
2021/12/21 05:13:16;;;;;;;7.72;4.50;;;;;;;-0.62;100.00;102822.78;5112579;28;20090;-34
2021/12/21 05:15:45;;;;;;;8.75;4.15;;;;;;;-0.65;100.00;102823.16;5112616;28;20043;-36
2021/12/21 05:18:16;;;;;;;9.55;4.90;;;;;;;-0.65;100.00;102825.88;5112663;28;20075;-38
2021/12/21 05:20:44;;;;;;;11.25;5.03;;;;;;;-0.67;100.00;102821.63;5113672;28;20044;-34
2021/12/21 05:23:13;;;;;;;6.22;3.60;;;;;;;-0.70;100.00;102825.56;5109579;28;20130;-27
2021/12/21 05:25:41;;;;;;;6.22;3.45;;;;;;;-0.73;100.00;102831.38;5112652;28;20415;-30
2021/12/21 05:28:11;;;;;;;8.95;3.55;;;;;;;-0.77;100.00;102830.03;5113231;28;20036;-37
2021/12/21 05:30:40;;;;;;;7.35;3.08;;;;;;;-0.81;100.00;102834.16;5113240;28;20062;-29
2021/12/21 05:33:09;;;;;;;7.65;3.67;;;;;;;-0.86;100.00;102831.09;5112729;28;20047;-33
2021/12/21 05:35:38;;;;;;;7.05;4.05;;;;;;;-0.91;100.00;102831.63;5110467;28;20083;-35
2021/12/21 05:38:08;;;;;;;6.65;3.60;;;;;;;-0.96;100.00;102831.28;5109467;28;20066;-36
2021/12/21 05:40:40;;;;;;;5.85;2.65;;;;;;;-1.00;100.00;102829.09;5113323;28;20079;-30
2021/12/21 05:43:09;;;;;;;8.10;3.97;;;;;;;-1.05;100.00;102827.72;5112554;28;20489;-34
2021/12/21 05:45:37;;;;;;;6.40;3.13;;;;;;;-1.09;100.00;102834.56;5112440;28;20075;-34
2021/12/21 05:48:06;;;;;;;6.32;2.90;;;;;;;-1.12;100.00;102837.66;5112953;28;20139;-35
2021/12/21 05:50:34;;;;;;;7.38;3.47;;;;;;;-1.16;100.00;102832.69;5113038;28;20051;-33
2021/12/21 05:53:03;;;;;;;6.00;3.08;;;;;;;-1.19;100.00;102833.03;5105187;28;20134;-38
2021/12/21 05:55:31;;;;;;;9.70;4.82;;;;;;;-1.23;100.00;102832.53;5113348;28;20134;-32
2021/12/21 05:57:59;;;;;;;5.35;3.17;;;;;;;-1.26;100.00;102824.66;5112617;28;20047;-32
2021/12/21 06:00:30;;;;;;;11.25;5.32;;;;;;;-1.26;100.00;102827.41;5112051;28;20126;-35
2021/12/21 06:02:58;;;;;;;10.32;5.78;;;;;;;-1.26;100.00;102821.94;5112346;28;20135;-34
2021/12/21 06:05:27;;;;;;;9.27;4.88;;;;;;;-1.23;100.00;102828.94;5112817;28;20036;-34
2021/12/21 06:07:55;;;;;;;7.53;4.32;;;;;;;-1.21;100.00;102832.38;5111372;28;20032;-37
2021/12/21 06:10:29;;;;;;;14.25;6.28;;;;;;;-1.19;100.00;102835.75;5112289;28;20437;-34
2021/12/21 06:15:48;;;;;;;11.45;5.80;;;;;;;-1.19;100.00;102836.63;5110185;28;20047;-36
2021/12/21 06:26:44;;;;;;;12.68;5.97;;;;;;;-1.18;100.00;102827.38;5112098;28;20047;-34
2021/12/21 06:29:12;;;;;;;11.77;7.15;;;;;;;-1.13;100.00;102835.94;5110143;28;20082;-37
2021/12/21 06:31:41;;;;;;;12.52;8.15;;;;;;;-1.08;100.00;102832.69;5112389;28;20072;-34
2021/12/21 06:34:09;;;;;;;13.02;6.80;;;;;;;-1.05;100.00;102827.72;5111061;28;20099;-31
2021/12/21 06:36:37;;;;;;;10.15;5.75;;;;;;;-1.03;100.00;102833.03;5112112;28;20458;-37
2021/12/21 06:39:06;;;;;;;13.65;5.97;;;;;;;-1.04;100.00;102839.53;5111511;28;20503;-34
2021/12/21 06:41:35;;;;;;;7.75;4.22;;;;;;;-1.05;100.00;102838.69;5111111;28;20134;-33
2021/12/21 06:44:08;;;;;;;9.93;6.22;;;;;;;-1.02;100.00;102844.84;5111309;28;20118;-36
2021/12/21 06:46:52;;;;;;;;;;;;;;;-1.09;100.00;102842.78;5112188;28;20050;-36
2021/12/21 06:52:09;;;;;;;12.73;6.38;;;;;;;-1.14;100.00;102847.91;5111806;28;20051;-33
2021/12/21 06:54:37;;;;;;;13.85;7.80;;;;;;;-1.13;100.00;102852.38;5111708;28;20090;-35
2021/12/21 06:57:06;;;;;;;8.20;5.13;;;;;;;-1.13;100.00;102844.16;5110639;28;20221;-36
2021/12/21 06:59:35;;;;;;;11.77;6.25;;;;;;;-1.11;100.00;102841.25;5111231;28;20051;-34
2021/12/21 07:02:04;;;;;;;12.43;6.45;;;;;;;-1.10;100.00;102848.44;5110595;28;20051;-36
2021/12/21 07:04:32;;;;;;;16.48;7.68;;;;;;;-1.10;100.00;102846.56;5110136;28;20469;-33
2021/12/21 07:07:01;;;;;;;11.05;5.93;;;;;;;-1.11;100.00;102843.97;5110288;28;20051;-31
2021/12/21 07:09:35;;;;;;;9.05;6.00;;;;;;;-1.15;100.00;102843.47;5109460;28;20500;-32
2021/12/21 07:12:26;;;;;;;11.23;6.72;;;;;;;-1.14;100.00;102852.53;5110347;28;20100;-33
2021/12/21 07:20:27;;;;;;;9.45;4.55;;;;;;;-1.16;100.00;102860.94;5109568;28;20048;-36
2021/12/21 07:22:55;;;;;;;8.48;5.25;;;;;;;-1.14;100.00;102863.50;5110125;28;20048;-34
2021/12/21 07:25:25;;;;;;;6.90;4.15;;;;;;;-1.14;100.00;102861.63;5108972;28;20047;-33
2021/12/21 07:27:53;;;;;;;15.02;7.22;;;;;;;-1.15;100.00;102864.53;5110381;28;20142;-35
2021/12/21 07:30:23;;;;;;;12.02;7.38;;;;;;;-1.14;100.00;102864.34;5108941;28;20040;-33
2021/12/21 07:32:50;;;;;;;19.45;7.68;;;;;;;-1.11;100.00;102860.41;5109901;28;20134;-34
2021/12/21 07:35:18;;;;;;;14.65;6.43;;;;;;;-1.10;100.00;102862.13;5109201;28;20518;-37
2021/12/21 07:37:47;;;;;;;12.50;6.65;;;;;;;-1.09;100.00;102853.75;5108611;28;20092;-29
2021/12/21 07:40:15;;;;;;;15.45;7.47;;;;;;;-1.08;100.00;102860.06;5107475;28;20419;-32
2021/12/21 07:42:43;;;;;;;9.68;5.65;;;;;;;-1.06;100.00;102860.75;5109441;28;20058;-29
2021/12/21 07:45:11;;;;;;;6.45;4.20;;;;;;;-1.07;100.00;102856.31;5107937;28;20047;-37
2021/12/21 07:47:41;;;;;;;8.55;4.03;;;;;;;-1.10;100.00;102860.25;5108300;28;20455;-29
2021/12/21 07:50:10;;;;;;;10.30;4.97;;;;;;;-1.15;100.00;102865.38;5109777;28;20085;-36
2021/12/21 07:52:38;;;;;;;8.50;4.32;;;;;;;-1.17;100.00;102859.22;5109259;28;20062;-33
2021/12/21 07:55:07;;;;;;;10.20;5.32;;;;;;;-1.20;100.00;102851.34;5109864;28;20055;-39
2021/12/21 07:57:35;;;;;;;7.32;4.47;;;;;;;-1.23;100.00;102857.19;5109994;28;20044;-32
2021/12/21 08:00:06;;;;;;;13.82;7.68;;;;;;;-1.22;100.00;102856.16;5109082;28;20035;-31
2021/12/21 08:02:40;;;;;;;13.52;7.43;;;;;;;-1.21;100.00;102852.41;5109673;28;20083;-36
2021/12/21 08:05:10;;;;;;;13.88;6.80;;;;;;;-1.19;100.00;102858.53;5110028;28;20066;-31
2021/12/21 08:07:46;;;;;;;9.43;5.40;;;;;;;-1.20;100.00;102851.34;5105421;28;20079;-33
2021/12/21 08:10:25;;;;;;;7.45;4.43;;;;;;;-1.20;100.00;102858.75;5109606;28;20165;-31
2021/12/21 08:12:53;;;;;;;7.57;4.65;;;;;;;-1.22;100.00;102858.91;5105523;28;20047;-35
2021/12/21 08:15:22;;;;;;;6.60;4.18;;;;;;;-1.24;100.00;102863.69;5109813;28;20094;-34
2021/12/21 08:17:51;;;;;;;9.90;5.53;;;;;;;-1.27;100.00;102861.28;5108647;28;20082;-36
2021/12/21 08:20:19;;;;;;;8.57;4.80;;;;;;;-1.29;100.00;102851.53;5109157;28;20052;-36
2021/12/21 08:22:47;;;;;;;9.73;4.68;;;;;;;-1.31;100.00;102848.97;5109553;28;20048;-35
2021/12/21 08:25:15;;;;;;;9.80;5.47;;;;;;;-1.31;100.00;102842.63;5109718;28;20077;-34
2021/12/21 08:27:43;;;;;;;9.55;4.82;;;;;;;-1.31;100.00;102848.97;5108739;28;20532;-33
2021/12/21 08:30:11;;;;;;;11.43;6.07;;;;;;;-1.27;100.00;102844.00;5109457;28;20060;-38
2021/12/21 08:32:39;;;;;;;8.27;5.15;;;;;;;-1.25;100.00;102842.81;5112217;28;20052;-35
2021/12/21 08:35:12;;;;;;;18.38;8.48;;;;;;;-1.19;100.00;102833.88;5112467;28;20125;-36
2021/12/21 08:37:39;;;;;;;22.08;8.95;;;;;;;-1.13;100.00;102829.59;5113043;28;20044;-34
2021/12/21 08:40:11;;;;;;;20.60;9.75;;;;;;;-1.07;100.00;102838.00;5111210;28;20564;-36
2021/12/21 08:42:40;;;;;;;15.45;7.03;;;;;;;-1.00;100.00;102843.63;5112211;28;20577;-37
2021/12/21 08:45:09;;;;;;;11.18;5.70;;;;;;;-0.97;100.00;102846.00;5113295;28;20057;-39
2021/12/21 08:47:37;;;;;;;11.45;5.85;;;;;;;-0.94;100.00;102853.88;5112649;28;20131;-34
2021/12/21 08:50:08;;;;;;;7.55;4.25;;;;;;;-0.92;100.00;102861.94;5109239;28;20043;-29
2021/12/21 08:52:37;;;;;;;7.40;4.25;;;;;;;-0.91;100.00;102866.38;5113449;28;20046;-34
2021/12/21 08:55:12;;;;;;;6.80;4.10;;;;;;;-0.90;100.00;102868.09;5110641;28;20051;-34
2021/12/21 08:57:40;;;;;;;9.50;5.43;;;;;;;-0.89;100.00;102864.31;5112970;28;20043;-33
2021/12/21 09:00:09;;;;;;;8.65;4.20;;;;;;;-0.87;100.00;102857.66;5112964;27;20050;-34
2021/12/21 09:02:38;;;;;;;9.93;5.45;;;;;;;-0.81;100.00;102873.41;5106792;28;20044;-32
2021/12/21 09:05:15;;;;;;;18.58;8.68;;;;;;;-0.72;100.00;102866.84;5112676;28;20545;-37
2021/12/21 09:07:43;;;;;;;14.23;8.00;;;;;;;-0.57;100.00;102880.66;5113565;28;20042;-31
2021/12/21 09:10:14;;;;;;;12.82;7.50;;;;;;;-0.29;100.00;102881.09;5110017;28;20096;-34
2021/12/21 09:12:42;;;;;;;18.50;8.23;;;;;;;0.11;100.00;102873.69;5112380;28;20100;-33
2021/12/21 09:15:11;;;;;;;14.55;7.82;;;;;;;0.57;100.00;102869.94;5113532;28;20113;-30
2021/12/21 09:17:40;;;;;;;15.10;8.00;;;;;;;1.05;100.00;102856.78;5112592;28;20508;-33
2021/12/21 09:20:12;;;;;;;19.67;8.43;;;;;;;1.41;100.00;102856.88;5113386;28;20461;-35
2021/12/21 09:22:46;;;;;;;20.98;8.65;;;;;;;1.65;100.00;102861.25;5113763;28;20042;-34
2021/12/21 09:25:14;;;;;;;17.70;8.23;;;;;;;1.88;100.00;102861.97;5109249;28;20047;-32
2021/12/21 09:27:43;;;;;;;19.17;7.25;;;;;;;2.15;100.00;102857.66;5113476;28;20054;-32
2021/12/21 09:30:14;;;;;;;17.33;7.80;;;;;;;2.48;100.00;102854.38;5111648;28;20401;-39
2021/12/21 09:32:44;;;;;;;17.23;8.05;;;;;;;2.78;100.00;102855.97;5113710;28;20043;-31
2021/12/21 09:35:13;;;;;;;20.63;7.68;;;;;;;3.01;100.00;102858.47;5113023;28;20073;-32
2021/12/21 09:37:44;;;;;;;14.15;6.95;;;;;;;3.32;100.00;102867.19;5112882;28;20448;-39
2021/12/21 09:40:15;;;;;;;29.45;8.57;;;;;;;3.70;100.00;102867.63;5112765;28;20044;-35
2021/12/21 09:42:43;;;;;;;13.63;6.25;;;;;;;4.24;100.00;102864.00;5112519;28;20051;-34
2021/12/21 09:45:12;;;;;;;23.23;8.80;;;;;;;4.65;100.00;102860.28;5112004;28;20093;-40
2021/12/21 09:47:40;;;;;;;19.48;7.05;;;;;;;4.89;100.00;102859.66;5100698;28;20412;-38
2021/12/21 09:50:10;;;;;;;18.35;6.97;;;;;;;5.17;100.00;102857.53;5106935;28;20058;-35
2021/12/21 09:52:40;;;;;;;16.38;6.70;;;;;;;5.45;100.00;102859.16;5101970;28;20044;-37
2021/12/21 09:55:10;;;;;;;15.95;6.97;;;;;;;5.76;100.00;102853.78;5112919;28;20043;-37
2021/12/21 09:57:38;;;;;;;15.05;6.70;;;;;;;5.80;100.00;102856.94;5112794;28;20500;-32
2021/12/21 10:00:12;;;;;;;16.88;7.03;;;;;;;5.72;100.00;102846.97;5109238;28;20047;-36
2021/12/21 10:02:40;;;;;;;15.13;6.18;;;;;;;5.81;100.00;102850.31;5112952;28;20518;-37
2021/12/21 10:05:11;;;;;;;15.35;5.75;;;;;;;5.87;100.00;102853.09;5111580;28;20123;-31
2021/12/21 10:07:41;;;;;;;13.90;5.82;;;;;;;5.79;100.00;102847.81;5112749;28;20461;-38
2021/12/21 10:10:11;;;;;;;12.52;5.40;;;;;;;5.78;100.00;102842.47;5112598;28;20067;-40
2021/12/21 10:12:41;;;;;;;14.43;5.25;;;;;;;5.78;99.73;102837.78;5111455;28;20046;-33
2021/12/21 10:15:12;;;;;;;13.52;5.13;;;;;;;5.81;97.79;102834.56;5112412;28;20085;-38
2021/12/21 10:17:49;;;;;;;12.20;4.90;;;;;;;5.77;95.83;102840.78;5110999;28;20052;-39
2021/12/21 10:20:31;;;;;;;15.55;5.45;;;;;;;5.72;96.39;102838.66;5111075;28;20447;-39
2021/12/21 10:23:00;;;;;;;10.60;4.57;;;;;;;5.78;94.04;102839.72;5112178;28;20134;-38
2021/12/21 10:25:28;;;;;;;7.70;4.10;;;;;;;5.85;94.68;102835.81;5112288;28;20647;-37
2021/12/21 10:27:56;;;;;;;11.48;4.50;;;;;;;5.99;93.73;102836.66;5111333;28;20073;-33
2021/12/21 10:30:23;;;;;;;10.57;4.40;;;;;;;6.20;93.47;102839.09;5111993;28;20066;-38
2021/12/21 10:32:54;;;;;;;11.68;4.57;;;;;;;6.39;91.44;102837.31;5111745;28;20062;-38
2021/12/21 10:35:31;;;;;;;10.27;4.35;;;;;;;6.67;91.63;102847.97;5094345;28;20035;-38
2021/12/21 10:38:03;;;;;;;9.52;3.80;;;;;;;6.83;88.53;102836.31;5111798;28;20509;-34
2021/12/21 10:40:31;;;;;;;7.97;3.65;;;;;;;6.91;88.32;102841.59;5093881;28;20170;-36
2021/12/21 10:43:00;;;;;;;8.55;3.67;;;;;;;6.90;85.87;102836.25;5111696;28;20469;-41
2021/12/21 10:45:31;;;;;;;9.98;3.70;;;;;;;6.89;85.91;102837.34;5112076;28;20051;-41
2021/12/21 10:48:01;;;;;;;8.38;3.15;;;;;;;6.81;85.77;102832.06;5107908;28;20070;-40
2021/12/21 10:50:32;;;;;;;6.88;3.30;;;;;;;6.81;84.71;102823.72;5111667;28;20047;-35
2021/12/21 10:53:04;;;;;;;9.90;3.47;;;;;;;6.84;82.85;102815.81;5110388;28;20182;-38
2021/12/21 10:55:34;;;;;;;8.60;3.25;;;;;;;6.77;83.34;102815.03;5110298;28;20450;-40
2021/12/21 10:58:05;;;;;;;7.65;3.17;;;;;;;6.71;83.65;102821.47;5111502;28;20048;-37
2021/12/21 11:00:33;;;;;;;8.68;3.60;;;;;;;6.64;83.25;102819.81;5111732;28;20078;-32
2021/12/21 11:03:01;;;;;;;6.05;2.92;;;;;;;6.56;83.38;102813.50;5110549;28;20048;-35
2021/12/21 11:05:35;;;;;;;9.43;3.25;;;;;;;6.63;84.60;102823.66;5111896;28;20043;-38
2021/12/21 11:08:07;;;;;;;7.70;3.30;;;;;;;6.59;83.17;102820.53;5110584;28;20039;-33
2021/12/21 11:10:37;;;;;;;5.90;2.60;;;;;;;6.50;82.64;102824.63;5111245;28;20067;-32
2021/12/21 11:13:09;;;;;;;7.00;3.22;;;;;;;6.38;83.15;102813.41;5111206;28;20057;-38
2021/12/21 11:15:40;;;;;;;8.27;3.50;;;;;;;6.16;81.47;102812.91;5111127;28;20425;-34
2021/12/21 11:18:10;;;;;;;8.25;2.95;;;;;;;5.98;82.71;102809.19;5111164;28;20054;-33
2021/12/21 11:20:40;;;;;;;9.63;3.35;;;;;;;5.81;83.26;102806.00;5111622;28;20050;-31
2021/12/21 11:23:12;;;;;;;8.18;2.90;;;;;;;5.65;82.29;102800.97;5110517;28;20079;-35
2021/12/21 11:25:42;;;;;;;5.80;2.80;;;;;;;5.52;82.38;102807.41;5100486;28;20059;-38
2021/12/21 11:28:15;;;;;;;7.90;3.10;;;;;;;5.37;82.44;102801.28;5110925;28;20082;-29
2021/12/21 11:30:43;;;;;;;6.80;3.00;;;;;;;5.34;83.59;102794.25;5110695;28;20043;-37
2021/12/21 11:33:12;;;;;;;8.68;3.00;;;;;;;5.36;83.22;102791.28;5110874;28;20407;-37
2021/12/21 11:38:27;;;;;;;7.80;2.78;;;;;;;5.27;82.54;102787.03;5110332;28;20075;-35
2021/12/21 11:40:55;;;;;;;6.88;3.00;;;;;;;5.19;82.89;102782.59;5111283;28;20044;-36
2021/12/21 11:43:34;;;;;;;8.98;3.58;;;;;;;5.16;83.15;102772.81;5110396;28;20046;-33
2021/12/21 11:46:07;;;;;;;8.05;2.90;;;;;;;5.11;83.86;102777.28;5108843;28;20047;-37
2021/12/21 11:48:45;;;;;;;10.25;3.35;;;;;;;5.14;84.29;102769.41;5111224;28;20059;-33
2021/12/21 11:51:14;;;;;;;7.60;3.40;;;;;;;5.15;83.17;102765.56;5107622;28;20048;-33
2021/12/21 11:53:44;;;;;;;7.55;3.00;;;;;;;5.08;82.12;102766.63;5110657;28;20053;-34
2021/12/21 11:56:22;;;;;;;8.55;3.00;;;;;;;5.02;81.92;102762.81;5091290;28;20481;-39
2021/12/21 11:58:52;;;;;;;7.00;3.10;;;;;;;4.94;81.64;102765.81;5099001;28;20051;-35
2021/12/21 12:01:23;;;;;;;8.95;3.10;;;;;;;4.91;82.89;102765.41;5110339;28;20075;-34